Main page
METAR-TAF:

METAR-TAF

Airports :

Çanakkale Airport

Çanakkale, Turkey

latitude: 40-08N, longitude: 026-24E, elevation: 3 m

Current weather observation

The report was made 35 minutes ago, at 04:50 UTC
Wind 10 kt from the South, varying between South/Southeast and West/Southwest
Temperature 15°C
Humidity 67%
Pressure 1018 hPa
Visibility 10 km or more
Scattered clouds at a height of 3500 ft
Broken clouds at a height of 10000 ft

METAR: LTBH 060450Z 19010KT 160V240 9999 SCT035 BKN100 15/09 Q1018

Time: 08:25 (05:25 UTC)

Forecast

The report was made 3 hours and 45 minutes ago, at 01:40 UTC
Forecast valid from 06 at 03 UTC to 06 at 12 UTC
Wind 2 kt from variable directions
Visibility 10 km or more
no clouds below 1500 m and no cumulonimbus
Becoming
from 06 at 06 UTC to 06 at 09 UTC
Few clouds at a height of 3500 ft
Scattered clouds at a height of 10000 ft
Broken clouds at a height of 20000 ft

TAF: LTBH 060140Z 0603/0612 VRB02KT CAVOK BECMG 0606/0609 FEW035 SCT100 BKN200

Weather observations and forecasts of more than 4000 airports (METAR and TAF reports).

The available stations are represented by yellow and red dots on the map.

Hover mouse over dot to see the name of the station.

Then click to see weather observations and forecasts.

To change the map : click on the green buttons with a black cross to zoom in, on the green button with a dash to zoom out, or on the green arrows for adjacent maps.


METAR-TAF: